sensor_id;sensor_type;location;lat;lon;timestamp;P1;durP1;ratioP1;P2;durP2;ratioP2
41077;SDS011;26823;42.662;23.352;2023-09-19T00:00:22;5.88;;;4.22;;
41077;SDS011;26823;42.662;23.352;2023-09-19T00:02:58;4.72;;;4.00;;
41077;SDS011;26823;42.662;23.352;2023-09-19T00:05:26;5.68;;;4.40;;
41077;SDS011;26823;42.662;23.352;2023-09-19T00:07:53;6.53;;;4.45;;
41077;SDS011;26823;42.662;23.352;2023-09-19T00:10:20;7.22;;;3.97;;
41077;SDS011;26823;42.662;23.352;2023-09-19T00:12:49;5.35;;;4.18;;
41077;SDS011;26823;42.662;23.352;2023-09-19T00:15:21;5.25;;;4.00;;
41077;SDS011;26823;42.662;23.352;2023-09-19T00:17:51;5.22;;;3.72;;
41077;SDS011;26823;42.662;23.352;2023-09-19T00:20:17;7.07;;;4.47;;
41077;SDS011;26823;42.662;23.352;2023-09-19T00:22:44;6.05;;;4.45;;
41077;SDS011;26823;42.662;23.352;2023-09-19T00:25:09;5.18;;;3.83;;
41077;SDS011;26823;42.662;23.352;2023-09-19T00:27:37;5.43;;;3.90;;
41077;SDS011;26823;42.662;23.352;2023-09-19T00:30:06;5.93;;;3.70;;
41077;SDS011;26823;42.662;23.352;2023-09-19T00:32:34;6.60;;;4.20;;
41077;SDS011;26823;42.662;23.352;2023-09-19T00:34:59;6.72;;;4.53;;
41077;SDS011;26823;42.662;23.352;2023-09-19T00:37:25;4.93;;;3.85;;
41077;SDS011;26823;42.662;23.352;2023-09-19T00:39:50;5.22;;;4.35;;
41077;SDS011;26823;42.662;23.352;2023-09-19T00:42:19;6.88;;;4.22;;
41077;SDS011;26823;42.662;23.352;2023-09-19T00:44:46;8.27;;;3.97;;
41077;SDS011;26823;42.662;23.352;2023-09-19T00:47:11;5.60;;;4.05;;
41077;SDS011;26823;42.662;23.352;2023-09-19T00:49:45;5.72;;;4.20;;
41077;SDS011;26823;42.662;23.352;2023-09-19T00:52:18;7.53;;;4.13;;
41077;SDS011;26823;42.662;23.352;2023-09-19T00:54:48;7.10;;;4.35;;
41077;SDS011;26823;42.662;23.352;2023-09-19T00:57:14;5.55;;;4.55;;
41077;SDS011;26823;42.662;23.352;2023-09-19T00:59:44;6.35;;;4.32;;
41077;SDS011;26823;42.662;23.352;2023-09-19T01:02:10;7.50;;;4.30;;
41077;SDS011;26823;42.662;23.352;2023-09-19T01:04:39;5.32;;;4.45;;
41077;SDS011;26823;42.662;23.352;2023-09-19T01:07:05;6.18;;;4.45;;
41077;SDS011;26823;42.662;23.352;2023-09-19T01:09:31;6.68;;;4.32;;
41077;SDS011;26823;42.662;23.352;2023-09-19T01:11:58;7.60;;;4.47;;
41077;SDS011;26823;42.662;23.352;2023-09-19T01:30:39;6.95;;;4.88;;
41077;SDS011;26823;42.662;23.352;2023-09-19T01:33:08;5.45;;;4.25;;
41077;SDS011;26823;42.662;23.352;2023-09-19T01:35:37;6.75;;;4.90;;
41077;SDS011;26823;42.662;23.352;2023-09-19T01:38:04;7.07;;;4.75;;
41077;SDS011;26823;42.662;23.352;2023-09-19T01:40:32;5.78;;;4.97;;
41077;SDS011;26823;42.662;23.352;2023-09-19T01:43:09;5.45;;;4.60;;
41077;SDS011;26823;42.662;23.352;2023-09-19T01:46:04;6.72;;;5.03;;
41077;SDS011;26823;42.662;23.352;2023-09-19T01:49:28;5.15;;;4.60;;
41077;SDS011;26823;42.662;23.352;2023-09-19T01:52:09;5.75;;;4.70;;
41077;SDS011;26823;42.662;23.352;2023-09-19T01:54:56;7.45;;;4.80;;
41077;SDS011;26823;42.662;23.352;2023-09-19T02:00:25;6.05;;;4.53;;
41077;SDS011;26823;42.662;23.352;2023-09-19T02:02:53;11.40;;;5.03;;
41077;SDS011;26823;42.662;23.352;2023-09-19T02:05:25;9.52;;;4.93;;
41077;SDS011;26823;42.662;23.352;2023-09-19T02:07:55;5.70;;;4.57;;
41077;SDS011;26823;42.662;23.352;2023-09-19T02:10:21;9.15;;;4.70;;
41077;SDS011;26823;42.662;23.352;2023-09-19T02:12:48;4.80;;;4.30;;
41077;SDS011;26823;42.662;23.352;2023-09-19T02:15:15;6.50;;;4.50;;
41077;SDS011;26823;42.662;23.352;2023-09-19T02:17:44;5.38;;;4.30;;
41077;SDS011;26823;42.662;23.352;2023-09-19T02:20:11;5.30;;;4.38;;
41077;SDS011;26823;42.662;23.352;2023-09-19T02:22:44;4.65;;;4.15;;
41077;SDS011;26823;42.662;23.352;2023-09-19T02:25:10;6.15;;;4.90;;
41077;SDS011;26823;42.662;23.352;2023-09-19T02:27:36;5.05;;;4.47;;
41077;SDS011;26823;42.662;23.352;2023-09-19T02:30:02;5.47;;;4.07;;
41077;SDS011;26823;42.662;23.352;2023-09-19T02:32:28;8.20;;;4.72;;
41077;SDS011;26823;42.662;23.352;2023-09-19T02:34:55;9.23;;;5.15;;
41077;SDS011;26823;42.662;23.352;2023-09-19T02:37:21;5.65;;;5.00;;
41077;SDS011;26823;42.662;23.352;2023-09-19T02:39:46;8.48;;;4.93;;
41077;SDS011;26823;42.662;23.352;2023-09-19T02:42:12;8.52;;;5.32;;
41077;SDS011;26823;42.662;23.352;2023-09-19T02:44:37;7.40;;;4.22;;
41077;SDS011;26823;42.662;23.352;2023-09-19T02:47:03;5.40;;;4.90;;
41077;SDS011;26823;42.662;23.352;2023-09-19T02:49:29;7.43;;;5.38;;
41077;SDS011;26823;42.662;23.352;2023-09-19T02:51:54;6.10;;;5.50;;
41077;SDS011;26823;42.662;23.352;2023-09-19T02:54:20;6.07;;;5.38;;
41077;SDS011;26823;42.662;23.352;2023-09-19T02:56:53;8.10;;;6.07;;
41077;SDS011;26823;42.662;23.352;2023-09-19T02:59:19;7.50;;;5.28;;
41077;SDS011;26823;42.662;23.352;2023-09-19T03:01:44;6.00;;;5.40;;
41077;SDS011;26823;42.662;23.352;2023-09-19T03:04:13;6.70;;;5.88;;
41077;SDS011;26823;42.662;23.352;2023-09-19T03:06:38;7.47;;;5.43;;
41077;SDS011;26823;42.662;23.352;2023-09-19T03:09:07;11.73;;;6.05;;
41077;SDS011;26823;42.662;23.352;2023-09-19T03:11:36;10.35;;;5.60;;
41077;SDS011;26823;42.662;23.352;2023-09-19T03:14:01;7.85;;;5.72;;
41077;SDS011;26823;42.662;23.352;2023-09-19T03:16:27;6.93;;;6.00;;
41077;SDS011;26823;42.662;23.352;2023-09-19T03:18:53;7.28;;;5.43;;
41077;SDS011;26823;42.662;23.352;2023-09-19T03:21:18;6.22;;;5.63;;
41077;SDS011;26823;42.662;23.352;2023-09-19T03:23:44;7.43;;;5.50;;
41077;SDS011;26823;42.662;23.352;2023-09-19T03:26:10;8.20;;;5.68;;
41077;SDS011;26823;42.662;23.352;2023-09-19T03:28:37;9.25;;;5.38;;
41077;SDS011;26823;42.662;23.352;2023-09-19T03:31:04;9.48;;;5.28;;
41077;SDS011;26823;42.662;23.352;2023-09-19T03:33:30;9.02;;;5.80;;
41077;SDS011;26823;42.662;23.352;2023-09-19T03:35:57;7.70;;;5.20;;
41077;SDS011;26823;42.662;23.352;2023-09-19T03:38:24;6.45;;;4.90;;
41077;SDS011;26823;42.662;23.352;2023-09-19T03:40:50;10.20;;;6.25;;
41077;SDS011;26823;42.662;23.352;2023-09-19T03:43:15;6.40;;;4.82;;
41077;SDS011;26823;42.662;23.352;2023-09-19T03:45:41;7.35;;;5.05;;
41077;SDS011;26823;42.662;23.352;2023-09-19T03:48:10;7.35;;;4.90;;
41077;SDS011;26823;42.662;23.352;2023-09-19T03:50:36;7.13;;;5.40;;
41077;SDS011;26823;42.662;23.352;2023-09-19T03:53:01;10.73;;;5.47;;
41077;SDS011;26823;42.662;23.352;2023-09-19T03:55:27;6.53;;;5.05;;
41077;SDS011;26823;42.662;23.352;2023-09-19T03:57:53;7.70;;;4.88;;
41077;SDS011;26823;42.662;23.352;2023-09-19T04:00:18;10.45;;;5.00;;
41077;SDS011;26823;42.662;23.352;2023-09-19T04:02:52;7.18;;;5.25;;
41077;SDS011;26823;42.662;23.352;2023-09-19T04:05:18;8.57;;;5.53;;
41077;SDS011;26823;42.662;23.352;2023-09-19T04:07:44;9.43;;;5.95;;
41077;SDS011;26823;42.662;23.352;2023-09-19T04:10:10;7.70;;;5.22;;
41077;SDS011;26823;42.662;23.352;2023-09-19T04:12:39;7.00;;;5.72;;
41077;SDS011;26823;42.662;23.352;2023-09-19T04:15:05;8.02;;;6.15;;
41077;SDS011;26823;42.662;23.352;2023-09-19T04:17:31;9.52;;;5.88;;
41077;SDS011;26823;42.662;23.352;2023-09-19T04:19:58;9.48;;;6.03;;
41077;SDS011;26823;42.662;23.352;2023-09-19T04:22:23;11.70;;;5.93;;
41077;SDS011;26823;42.662;23.352;2023-09-19T04:24:49;8.85;;;5.85;;
41077;SDS011;26823;42.662;23.352;2023-09-19T04:27:14;9.93;;;6.60;;
41077;SDS011;26823;42.662;23.352;2023-09-19T04:29:39;9.20;;;6.03;;
41077;SDS011;26823;42.662;23.352;2023-09-19T04:32:06;7.45;;;5.93;;
41077;SDS011;26823;42.662;23.352;2023-09-19T04:34:32;8.05;;;5.72;;
41077;SDS011;26823;42.662;23.352;2023-09-19T04:37:00;19.40;;;12.70;;
41077;SDS011;26823;42.662;23.352;2023-09-19T04:39:27;17.75;;;10.90;;
41077;SDS011;26823;42.662;23.352;2023-09-19T04:41:53;15.63;;;9.85;;
41077;SDS011;26823;42.662;23.352;2023-09-19T04:44:19;12.13;;;8.55;;
41077;SDS011;26823;42.662;23.352;2023-09-19T04:46:45;13.07;;;10.07;;
41077;SDS011;26823;42.662;23.352;2023-09-19T04:49:14;11.10;;;8.02;;
41077;SDS011;26823;42.662;23.352;2023-09-19T04:51:39;10.98;;;6.82;;
41077;SDS011;26823;42.662;23.352;2023-09-19T04:54:05;8.88;;;6.22;;
41077;SDS011;26823;42.662;23.352;2023-09-19T04:56:31;9.82;;;7.40;;
41077;SDS011;26823;42.662;23.352;2023-09-19T04:58:57;9.70;;;6.40;;
41077;SDS011;26823;42.662;23.352;2023-09-19T05:01:25;11.30;;;6.68;;
41077;SDS011;26823;42.662;23.352;2023-09-19T05:03:52;8.95;;;6.15;;
41077;SDS011;26823;42.662;23.352;2023-09-19T05:06:20;8.13;;;6.82;;
41077;SDS011;26823;42.662;23.352;2023-09-19T05:08:46;9.43;;;7.72;;
41077;SDS011;26823;42.662;23.352;2023-09-19T05:11:20;11.68;;;7.53;;
41077;SDS011;26823;42.662;23.352;2023-09-19T05:13:49;9.73;;;7.28;;
41077;SDS011;26823;42.662;23.352;2023-09-19T05:16:16;7.03;;;6.20;;
41077;SDS011;26823;42.662;23.352;2023-09-19T05:18:41;9.48;;;7.10;;
41077;SDS011;26823;42.662;23.352;2023-09-19T05:21:07;10.10;;;6.63;;
41077;SDS011;26823;42.662;23.352;2023-09-19T05:23:32;9.00;;;6.88;;
41077;SDS011;26823;42.662;23.352;2023-09-19T05:25:58;14.90;;;7.03;;
41077;SDS011;26823;42.662;23.352;2023-09-19T05:28:25;8.82;;;6.72;;
41077;SDS011;26823;42.662;23.352;2023-09-19T05:30:51;10.35;;;6.60;;
41077;SDS011;26823;42.662;23.352;2023-09-19T05:33:18;10.68;;;7.07;;
41077;SDS011;26823;42.662;23.352;2023-09-19T05:35:44;10.10;;;6.03;;
41077;SDS011;26823;42.662;23.352;2023-09-19T05:38:18;10.52;;;6.53;;
41077;SDS011;26823;42.662;23.352;2023-09-19T05:40:44;10.10;;;6.10;;
41077;SDS011;26823;42.662;23.352;2023-09-19T05:43:10;10.15;;;6.93;;
41077;SDS011;26823;42.662;23.352;2023-09-19T05:45:36;11.35;;;7.05;;
41077;SDS011;26823;42.662;23.352;2023-09-19T05:48:09;9.18;;;5.75;;
41077;SDS011;26823;42.662;23.352;2023-09-19T05:50:39;11.55;;;5.72;;
41077;SDS011;26823;42.662;23.352;2023-09-19T05:53:05;8.07;;;5.85;;
41077;SDS011;26823;42.662;23.352;2023-09-19T05:55:31;8.32;;;5.55;;
41077;SDS011;26823;42.662;23.352;2023-09-19T05:57:57;9.55;;;7.15;;
41077;SDS011;26823;42.662;23.352;2023-09-19T06:00:23;12.90;;;8.20;;
41077;SDS011;26823;42.662;23.352;2023-09-19T06:02:52;7.57;;;5.68;;
41077;SDS011;26823;42.662;23.352;2023-09-19T06:05:19;8.95;;;5.47;;
41077;SDS011;26823;42.662;23.352;2023-09-19T06:07:45;11.80;;;6.40;;
41077;SDS011;26823;42.662;23.352;2023-09-19T06:10:10;9.00;;;6.55;;
41077;SDS011;26823;42.662;23.352;2023-09-19T06:12:39;8.98;;;5.78;;
41077;SDS011;26823;42.662;23.352;2023-09-19T06:15:05;7.60;;;5.50;;
41077;SDS011;26823;42.662;23.352;2023-09-19T06:17:33;8.18;;;4.40;;
41077;SDS011;26823;42.662;23.352;2023-09-19T06:20:03;9.23;;;5.40;;
41077;SDS011;26823;42.662;23.352;2023-09-19T06:22:30;9.52;;;5.47;;
41077;SDS011;26823;42.662;23.352;2023-09-19T06:24:55;8.55;;;6.03;;
41077;SDS011;26823;42.662;23.352;2023-09-19T06:27:21;7.00;;;5.72;;
41077;SDS011;26823;42.662;23.352;2023-09-19T06:29:47;6.97;;;4.18;;
41077;SDS011;26823;42.662;23.352;2023-09-19T06:32:12;11.98;;;5.13;;
41077;SDS011;26823;42.662;23.352;2023-09-19T06:34:37;6.32;;;4.65;;
41077;SDS011;26823;42.662;23.352;2023-09-19T06:37:08;5.70;;;4.68;;
41077;SDS011;26823;42.662;23.352;2023-09-19T06:39:34;7.90;;;4.78;;
41077;SDS011;26823;42.662;23.352;2023-09-19T06:41:59;7.15;;;5.38;;
41077;SDS011;26823;42.662;23.352;2023-09-19T06:44:26;7.82;;;5.13;;
41077;SDS011;26823;42.662;23.352;2023-09-19T06:46:54;5.78;;;4.82;;
41077;SDS011;26823;42.662;23.352;2023-09-19T06:49:20;5.70;;;4.90;;
41077;SDS011;26823;42.662;23.352;2023-09-19T06:51:45;7.78;;;4.63;;
41077;SDS011;26823;42.662;23.352;2023-09-19T06:54:11;8.80;;;4.97;;
41077;SDS011;26823;42.662;23.352;2023-09-19T06:56:36;8.77;;;4.70;;
41077;SDS011;26823;42.662;23.352;2023-09-19T06:59:08;10.38;;;4.50;;
41077;SDS011;26823;42.662;23.352;2023-09-19T07:01:33;10.90;;;4.72;;
41077;SDS011;26823;42.662;23.352;2023-09-19T07:04:00;7.25;;;5.07;;
41077;SDS011;26823;42.662;23.352;2023-09-19T07:06:25;10.10;;;5.20;;
41077;SDS011;26823;42.662;23.352;2023-09-19T07:08:51;8.82;;;5.47;;
41077;SDS011;26823;42.662;23.352;2023-09-19T07:11:16;6.05;;;5.10;;
41077;SDS011;26823;42.662;23.352;2023-09-19T07:13:42;9.13;;;5.00;;
41077;SDS011;26823;42.662;23.352;2023-09-19T07:16:08;7.05;;;5.40;;
41077;SDS011;26823;42.662;23.352;2023-09-19T07:18:35;10.30;;;4.85;;
41077;SDS011;26823;42.662;23.352;2023-09-19T07:21:01;6.18;;;4.57;;
41077;SDS011;26823;42.662;23.352;2023-09-19T07:23:30;5.25;;;4.18;;
41077;SDS011;26823;42.662;23.352;2023-09-19T07:25:59;6.82;;;4.18;;
41077;SDS011;26823;42.662;23.352;2023-09-19T07:28:30;8.15;;;4.47;;
41077;SDS011;26823;42.662;23.352;2023-09-19T07:30:55;6.38;;;4.53;;
41077;SDS011;26823;42.662;23.352;2023-09-19T07:33:21;6.30;;;4.80;;
41077;SDS011;26823;42.662;23.352;2023-09-19T07:35:47;6.47;;;5.22;;
41077;SDS011;26823;42.662;23.352;2023-09-19T07:38:13;5.85;;;4.32;;
41077;SDS011;26823;42.662;23.352;2023-09-19T07:40:39;9.07;;;5.18;;
41077;SDS011;26823;42.662;23.352;2023-09-19T07:43:05;8.13;;;5.00;;
41077;SDS011;26823;42.662;23.352;2023-09-19T07:45:31;12.65;;;5.20;;
41077;SDS011;26823;42.662;23.352;2023-09-19T07:47:57;8.30;;;5.15;;
41077;SDS011;26823;42.662;23.352;2023-09-19T07:50:22;9.57;;;4.00;;
41077;SDS011;26823;42.662;23.352;2023-09-19T07:52:49;9.05;;;6.03;;
41077;SDS011;26823;42.662;23.352;2023-09-19T07:55:16;7.45;;;5.43;;
41077;SDS011;26823;42.662;23.352;2023-09-19T07:57:42;6.43;;;4.90;;
41077;SDS011;26823;42.662;23.352;2023-09-19T08:00:09;13.52;;;4.80;;
41077;SDS011;26823;42.662;23.352;2023-09-19T08:02:38;10.82;;;4.75;;
41077;SDS011;26823;42.662;23.352;2023-09-19T08:05:05;7.32;;;5.53;;
41077;SDS011;26823;42.662;23.352;2023-09-19T08:07:37;7.25;;;4.63;;
41077;SDS011;26823;42.662;23.352;2023-09-19T08:10:04;8.93;;;4.93;;
41077;SDS011;26823;42.662;23.352;2023-09-19T08:12:30;6.70;;;5.13;;
41077;SDS011;26823;42.662;23.352;2023-09-19T08:14:55;7.20;;;4.50;;
41077;SDS011;26823;42.662;23.352;2023-09-19T08:17:21;8.10;;;5.63;;
41077;SDS011;26823;42.662;23.352;2023-09-19T08:19:48;8.82;;;5.10;;
41077;SDS011;26823;42.662;23.352;2023-09-19T08:22:17;8.80;;;5.13;;
41077;SDS011;26823;42.662;23.352;2023-09-19T08:24:43;8.65;;;4.88;;
41077;SDS011;26823;42.662;23.352;2023-09-19T08:27:08;9.15;;;5.85;;
41077;SDS011;26823;42.662;23.352;2023-09-19T08:29:35;9.07;;;5.68;;
41077;SDS011;26823;42.662;23.352;2023-09-19T08:32:00;7.55;;;5.25;;
41077;SDS011;26823;42.662;23.352;2023-09-19T08:34:26;6.70;;;5.25;;
41077;SDS011;26823;42.662;23.352;2023-09-19T08:36:52;9.40;;;5.82;;
41077;SDS011;26823;42.662;23.352;2023-09-19T08:39:23;9.27;;;6.10;;
41077;SDS011;26823;42.662;23.352;2023-09-19T08:41:56;10.25;;;6.00;;
41077;SDS011;26823;42.662;23.352;2023-09-19T08:44:22;7.88;;;5.50;;
41077;SDS011;26823;42.662;23.352;2023-09-19T08:46:49;9.68;;;6.30;;
41077;SDS011;26823;42.662;23.352;2023-09-19T08:49:24;7.13;;;5.65;;
41077;SDS011;26823;42.662;23.352;2023-09-19T08:52:02;8.02;;;5.00;;
41077;SDS011;26823;42.662;23.352;2023-09-19T08:54:35;10.63;;;5.03;;
41077;SDS011;26823;42.662;23.352;2023-09-19T08:57:05;9.18;;;5.25;;
41077;SDS011;26823;42.662;23.352;2023-09-19T08:59:35;8.57;;;5.00;;
41077;SDS011;26823;42.662;23.352;2023-09-19T09:02:06;7.35;;;4.88;;
41077;SDS011;26823;42.662;23.352;2023-09-19T09:04:41;9.52;;;5.25;;
41077;SDS011;26823;42.662;23.352;2023-09-19T09:07:11;9.65;;;5.75;;
41077;SDS011;26823;42.662;23.352;2023-09-19T09:09:41;11.10;;;5.43;;
41077;SDS011;26823;42.662;23.352;2023-09-19T09:12:08;6.97;;;5.45;;
41077;SDS011;26823;42.662;23.352;2023-09-19T09:14:38;8.23;;;5.97;;
41077;SDS011;26823;42.662;23.352;2023-09-19T09:17:04;8.18;;;5.45;;
41077;SDS011;26823;42.662;23.352;2023-09-19T09:19:30;9.48;;;5.68;;
41077;SDS011;26823;42.662;23.352;2023-09-19T09:22:05;6.78;;;4.97;;
41077;SDS011;26823;42.662;23.352;2023-09-19T09:24:34;5.72;;;4.43;;
41077;SDS011;26823;42.662;23.352;2023-09-19T09:27:03;7.57;;;4.80;;
41077;SDS011;26823;42.662;23.352;2023-09-19T09:29:40;6.97;;;4.63;;
41077;SDS011;26823;42.662;23.352;2023-09-19T09:32:16;6.53;;;4.78;;
41077;SDS011;26823;42.662;23.352;2023-09-19T09:34:46;4.53;;;4.07;;
41077;SDS011;26823;42.662;23.352;2023-09-19T09:37:17;6.15;;;4.30;;
41077;SDS011;26823;42.662;23.352;2023-09-19T09:39:49;5.20;;;4.30;;
41077;SDS011;26823;42.662;23.352;2023-09-19T09:47:45;9.95;;;5.60;;
41077;SDS011;26823;42.662;23.352;2023-09-19T09:50:29;7.20;;;5.03;;
41077;SDS011;26823;42.662;23.352;2023-09-19T09:53:24;8.15;;;4.32;;
41077;SDS011;26823;42.662;23.352;2023-09-19T09:56:09;10.07;;;5.75;;
41077;SDS011;26823;42.662;23.352;2023-09-19T09:58:37;9.25;;;5.47;;
41077;SDS011;26823;42.662;23.352;2023-09-19T10:01:13;5.75;;;4.50;;
41077;SDS011;26823;42.662;23.352;2023-09-19T10:03:41;7.03;;;5.05;;
41077;SDS011;26823;42.662;23.352;2023-09-19T10:06:15;5.28;;;4.50;;
41077;SDS011;26823;42.662;23.352;2023-09-19T10:11:40;6.75;;;5.00;;
41077;SDS011;26823;42.662;23.352;2023-09-19T10:14:16;11.68;;;4.20;;
41077;SDS011;26823;42.662;23.352;2023-09-19T10:16:48;6.60;;;4.53;;
41077;SDS011;26823;42.662;23.352;2023-09-19T10:19:21;6.65;;;4.78;;
41077;SDS011;26823;42.662;23.352;2023-09-19T10:21:55;7.97;;;4.20;;
41077;SDS011;26823;42.662;23.352;2023-09-19T10:24:22;7.00;;;4.38;;
41077;SDS011;26823;42.662;23.352;2023-09-19T10:26:49;4.22;;;3.83;;
41077;SDS011;26823;42.662;23.352;2023-09-19T10:29:15;7.47;;;4.55;;
41077;SDS011;26823;42.662;23.352;2023-09-19T10:31:44;6.07;;;4.00;;
41077;SDS011;26823;42.662;23.352;2023-09-19T10:34:14;9.10;;;4.63;;
41077;SDS011;26823;42.662;23.352;2023-09-19T10:36:40;10.00;;;4.88;;
41077;SDS011;26823;42.662;23.352;2023-09-19T10:39:12;7.97;;;4.45;;
41077;SDS011;26823;42.662;23.352;2023-09-19T10:41:44;8.35;;;4.63;;
41077;SDS011;26823;42.662;23.352;2023-09-19T10:44:18;8.30;;;4.82;;
41077;SDS011;26823;42.662;23.352;2023-09-19T10:46:48;8.77;;;4.68;;
41077;SDS011;26823;42.662;23.352;2023-09-19T10:49:14;6.28;;;4.53;;
41077;SDS011;26823;42.662;23.352;2023-09-19T10:51:41;6.80;;;4.72;;
41077;SDS011;26823;42.662;23.352;2023-09-19T10:54:13;7.03;;;4.82;;
41077;SDS011;26823;42.662;23.352;2023-09-19T10:56:43;7.25;;;4.97;;
41077;SDS011;26823;42.662;23.352;2023-09-19T10:59:23;7.22;;;4.80;;
41077;SDS011;26823;42.662;23.352;2023-09-19T11:04:33;8.52;;;4.88;;
41077;SDS011;26823;42.662;23.352;2023-09-19T11:07:10;10.25;;;5.22;;
41077;SDS011;26823;42.662;23.352;2023-09-19T11:09:49;5.40;;;4.18;;
41077;SDS011;26823;42.662;23.352;2023-09-19T11:15:06;7.03;;;4.50;;
41077;SDS011;26823;42.662;23.352;2023-09-19T11:17:42;10.88;;;4.90;;
41077;SDS011;26823;42.662;23.352;2023-09-19T11:30:46;8.60;;;4.75;;
41077;SDS011;26823;42.662;23.352;2023-09-19T11:33:32;8.40;;;4.38;;
41077;SDS011;26823;42.662;23.352;2023-09-19T11:46:25;7.60;;;4.60;;
41077;SDS011;26823;42.662;23.352;2023-09-19T11:48:52;5.95;;;5.00;;
41077;SDS011;26823;42.662;23.352;2023-09-19T11:51:24;9.77;;;4.65;;
41077;SDS011;26823;42.662;23.352;2023-09-19T11:56:20;10.02;;;4.68;;
41077;SDS011;26823;42.662;23.352;2023-09-19T11:58:51;9.15;;;4.85;;
41077;SDS011;26823;42.662;23.352;2023-09-19T12:01:24;8.63;;;5.20;;
41077;SDS011;26823;42.662;23.352;2023-09-19T12:04:01;10.57;;;4.65;;
41077;SDS011;26823;42.662;23.352;2023-09-19T12:06:30;10.65;;;4.80;;
41077;SDS011;26823;42.662;23.352;2023-09-19T12:08:57;6.93;;;5.53;;
41077;SDS011;26823;42.662;23.352;2023-09-19T12:11:28;5.80;;;4.22;;
41077;SDS011;26823;42.662;23.352;2023-09-19T12:13:58;10.17;;;4.97;;
41077;SDS011;26823;42.662;23.352;2023-09-19T12:16:25;8.35;;;4.70;;
41077;SDS011;26823;42.662;23.352;2023-09-19T12:18:55;7.03;;;5.13;;
41077;SDS011;26823;42.662;23.352;2023-09-19T12:21:26;7.07;;;4.75;;
41077;SDS011;26823;42.662;23.352;2023-09-19T12:26:29;5.15;;;4.43;;
41077;SDS011;26823;42.662;23.352;2023-09-19T12:28:59;6.05;;;4.55;;
41077;SDS011;26823;42.662;23.352;2023-09-19T12:31:26;11.93;;;4.35;;
41077;SDS011;26823;42.662;23.352;2023-09-19T12:33:53;6.50;;;4.28;;
41077;SDS011;26823;42.662;23.352;2023-09-19T12:36:20;6.50;;;4.32;;
41077;SDS011;26823;42.662;23.352;2023-09-19T12:38:53;7.03;;;4.90;;
41077;SDS011;26823;42.662;23.352;2023-09-19T12:41:20;7.05;;;4.45;;
41077;SDS011;26823;42.662;23.352;2023-09-19T12:43:47;6.13;;;4.55;;
41077;SDS011;26823;42.662;23.352;2023-09-19T12:46:13;8.25;;;4.50;;
41077;SDS011;26823;42.662;23.352;2023-09-19T12:48:40;9.23;;;4.30;;
41077;SDS011;26823;42.662;23.352;2023-09-19T12:51:12;7.18;;;4.40;;
41077;SDS011;26823;42.662;23.352;2023-09-19T12:53:44;6.13;;;4.30;;
41077;SDS011;26823;42.662;23.352;2023-09-19T12:56:12;5.13;;;4.10;;
41077;SDS011;26823;42.662;23.352;2023-09-19T12:58:57;5.95;;;4.93;;
41077;SDS011;26823;42.662;23.352;2023-09-19T13:01:28;11.35;;;4.60;;
41077;SDS011;26823;42.662;23.352;2023-09-19T13:04:10;7.82;;;4.78;;
41077;SDS011;26823;42.662;23.352;2023-09-19T13:06:37;6.30;;;4.65;;
41077;SDS011;26823;42.662;23.352;2023-09-19T13:09:09;6.07;;;4.60;;
41077;SDS011;26823;42.662;23.352;2023-09-19T13:11:36;7.22;;;4.07;;
41077;SDS011;26823;42.662;23.352;2023-09-19T13:14:26;6.20;;;4.68;;
41077;SDS011;26823;42.662;23.352;2023-09-19T13:19:40;7.65;;;4.90;;
41077;SDS011;26823;42.662;23.352;2023-09-19T13:25:09;5.43;;;4.30;;
41077;SDS011;26823;42.662;23.352;2023-09-19T13:27:49;5.50;;;4.67;;
41077;SDS011;26823;42.662;23.352;2023-09-19T13:30:20;8.10;;;4.30;;
41077;SDS011;26823;42.662;23.352;2023-09-19T13:32:46;6.50;;;4.45;;
41077;SDS011;26823;42.662;23.352;2023-09-19T13:35:12;6.28;;;4.43;;
41077;SDS011;26823;42.662;23.352;2023-09-19T13:37:39;5.00;;;4.00;;
41077;SDS011;26823;42.662;23.352;2023-09-19T13:42:52;5.10;;;4.60;;
41077;SDS011;26823;42.662;23.352;2023-09-19T13:45:18;6.15;;;4.68;;
41077;SDS011;26823;42.662;23.352;2023-09-19T13:47:47;7.18;;;5.00;;
41077;SDS011;26823;42.662;23.352;2023-09-19T13:50:12;6.55;;;4.40;;
41077;SDS011;26823;42.662;23.352;2023-09-19T13:52:38;8.10;;;4.50;;
41077;SDS011;26823;42.662;23.352;2023-09-19T13:55:03;7.82;;;4.45;;
41077;SDS011;26823;42.662;23.352;2023-09-19T13:57:30;7.30;;;5.18;;
41077;SDS011;26823;42.662;23.352;2023-09-19T14:00:10;6.88;;;4.30;;
41077;SDS011;26823;42.662;23.352;2023-09-19T14:02:39;6.40;;;5.53;;
41077;SDS011;26823;42.662;23.352;2023-09-19T14:05:05;6.57;;;4.75;;
41077;SDS011;26823;42.662;23.352;2023-09-19T14:07:31;7.10;;;4.13;;
41077;SDS011;26823;42.662;23.352;2023-09-19T14:09:57;6.53;;;4.80;;
41077;SDS011;26823;42.662;23.352;2023-09-19T14:12:22;6.65;;;4.80;;
41077;SDS011;26823;42.662;23.352;2023-09-19T14:14:47;10.02;;;4.68;;
41077;SDS011;26823;42.662;23.352;2023-09-19T14:17:16;6.38;;;4.57;;
41077;SDS011;26823;42.662;23.352;2023-09-19T14:19:41;8.32;;;4.47;;
41077;SDS011;26823;42.662;23.352;2023-09-19T14:22:08;5.63;;;4.97;;
41077;SDS011;26823;42.662;23.352;2023-09-19T14:24:35;10.75;;;4.95;;
41077;SDS011;26823;42.662;23.352;2023-09-19T14:27:01;9.45;;;4.78;;
41077;SDS011;26823;42.662;23.352;2023-09-19T14:29:29;5.18;;;4.45;;
41077;SDS011;26823;42.662;23.352;2023-09-19T14:31:55;8.90;;;4.75;;
41077;SDS011;26823;42.662;23.352;2023-09-19T14:34:22;7.38;;;4.57;;
41077;SDS011;26823;42.662;23.352;2023-09-19T14:36:47;6.07;;;4.80;;
41077;SDS011;26823;42.662;23.352;2023-09-19T14:39:13;7.15;;;5.13;;
41077;SDS011;26823;42.662;23.352;2023-09-19T14:41:39;6.90;;;4.78;;
41077;SDS011;26823;42.662;23.352;2023-09-19T14:44:04;6.90;;;5.30;;
41077;SDS011;26823;42.662;23.352;2023-09-19T14:46:30;9.05;;;5.05;;
41077;SDS011;26823;42.662;23.352;2023-09-19T14:48:56;9.85;;;5.30;;
41077;SDS011;26823;42.662;23.352;2023-09-19T14:51:24;9.07;;;4.93;;
41077;SDS011;26823;42.662;23.352;2023-09-19T14:53:50;8.98;;;4.95;;
41077;SDS011;26823;42.662;23.352;2023-09-19T14:56:15;10.45;;;8.77;;
41077;SDS011;26823;42.662;23.352;2023-09-19T14:58:43;6.55;;;5.07;;
41077;SDS011;26823;42.662;23.352;2023-09-19T15:01:15;6.68;;;4.95;;
41077;SDS011;26823;42.662;23.352;2023-09-19T15:03:41;6.60;;;4.95;;
41077;SDS011;26823;42.662;23.352;2023-09-19T15:06:11;5.65;;;5.03;;
41077;SDS011;26823;42.662;23.352;2023-09-19T15:08:42;6.20;;;5.00;;
41077;SDS011;26823;42.662;23.352;2023-09-19T15:11:18;7.38;;;5.57;;
41077;SDS011;26823;42.662;23.352;2023-09-19T15:13:46;7.38;;;4.70;;
41077;SDS011;26823;42.662;23.352;2023-09-19T15:16:13;7.05;;;5.22;;
41077;SDS011;26823;42.662;23.352;2023-09-19T15:18:43;10.85;;;5.25;;
41077;SDS011;26823;42.662;23.352;2023-09-19T15:21:12;7.10;;;4.88;;
41077;SDS011;26823;42.662;23.352;2023-09-19T15:23:39;9.38;;;6.28;;
41077;SDS011;26823;42.662;23.352;2023-09-19T15:26:07;6.57;;;5.20;;
41077;SDS011;26823;42.662;23.352;2023-09-19T15:28:53;8.30;;;5.50;;
41077;SDS011;26823;42.662;23.352;2023-09-19T15:31:19;9.15;;;5.15;;
41077;SDS011;26823;42.662;23.352;2023-09-19T15:33:44;6.13;;;5.05;;
41077;SDS011;26823;42.662;23.352;2023-09-19T15:36:11;6.40;;;4.70;;
41077;SDS011;26823;42.662;23.352;2023-09-19T15:39:23;9.40;;;5.72;;
41077;SDS011;26823;42.662;23.352;2023-09-19T15:41:27;7.10;;;5.32;;
41077;SDS011;26823;42.662;23.352;2023-09-19T15:43:54;5.63;;;4.90;;
41077;SDS011;26823;42.662;23.352;2023-09-19T15:46:20;6.88;;;5.63;;
41077;SDS011;26823;42.662;23.352;2023-09-19T15:48:46;5.57;;;4.95;;